Time;durP1;ratioP1;P1;durP2;ratioP2;P2;SDS_P1;SDS_P2;PMS_P1;PMS_P2;Temp;Humidity;BMP_temperature;BMP_pressure;BME280_temperature;BME280_humidity;BME280_pressure;Samples;Min_cycle;Max_cycle;Signal;HPM_P1;HPM_P2
2021/06/27 21:58:39;;;;;;;17.30;8.00;;;;;;;19.64;60.58;100148.31;5006988;28;106994;-67
2021/06/27 22:01:06;;;;;;;14.60;7.97;;;;;;;19.73;61.32;100142.34;5005891;28;106059;-69
2021/06/27 22:03:31;;;;;;;17.02;8.07;;;;;;;19.86;61.61;100144.06;5005634;28;106517;-77
2021/06/27 22:05:57;;;;;;;11.82;7.40;;;;;;;19.93;61.40;100146.66;5005684;28;106064;-65
2021/06/27 22:08:23;;;;;;;12.90;7.70;;;;;;;19.92;61.48;100145.81;5005251;28;105860;-65
2021/06/27 22:10:48;;;;;;;13.02;7.78;;;;;;;19.92;61.67;100145.81;5006313;28;106231;-63
2021/06/27 22:13:14;;;;;;;13.10;7.63;;;;;;;19.84;61.60;100148.03;5005808;28;105789;-65
2021/06/27 22:15:39;;;;;;;16.30;8.52;;;;;;;19.73;61.84;100146.94;5003492;28;106745;-71
2021/06/27 22:18:04;;;;;;;13.48;8.25;;;;;;;19.65;62.04;100158.09;4985548;28;105918;-71
2021/06/27 22:20:30;;;;;;;12.65;8.23;;;;;;;19.52;62.20;100159.94;4986152;28;106090;-68
2021/06/27 22:22:56;;;;;;;11.38;7.82;;;;;;;19.41;62.16;100155.28;4985378;28;105746;-65
2021/06/27 22:25:21;;;;;;;16.13;9.38;;;;;;;19.33;62.59;100169.13;4984518;28;106005;-66
2021/06/27 22:27:47;;;;;;;13.73;8.95;;;;;;;19.26;62.70;100161.94;4983585;28;106414;-66
2021/06/27 22:30:14;;;;;;;11.43;7.88;;;;;;;19.24;62.88;100161.31;4985757;28;106488;-66
2021/06/27 22:32:43;;;;;;;11.52;7.97;;;;;;;19.21;63.10;100160.97;4984626;28;106121;-66
2021/06/27 22:35:10;;;;;;;10.40;7.50;;;;;;;19.20;63.28;100154.75;4985123;28;106124;-69
2021/06/27 22:37:35;;;;;;;11.10;8.35;;;;;;;19.21;63.15;100156.41;4984953;28;105903;-69
2021/06/27 22:40:01;;;;;;;11.27;7.68;;;;;;;19.23;63.51;100154.31;4985639;28;106061;-68
2021/06/27 22:42:26;;;;;;;9.27;7.38;;;;;;;19.32;63.66;100160.19;4985405;28;106212;-69
2021/06/27 22:44:51;;;;;;;8.32;7.32;;;;;;;19.35;63.55;100150.81;4984669;28;105932;-66
2021/06/27 22:47:17;;;;;;;8.88;7.95;;;;;;;19.34;63.30;100150.00;4985232;28;106015;-70
2021/06/27 22:49:42;;;;;;;10.32;7.05;;;;;;;19.32;63.46;100153.97;4985894;28;105908;-67
2021/06/27 22:52:07;;;;;;;12.27;7.90;;;;;;;19.38;63.62;100167.41;4985370;28;106154;-70
2021/06/27 22:54:33;;;;;;;8.82;7.40;;;;;;;19.41;63.74;100158.84;4984919;28;105941;-69
2021/06/27 22:57:00;;;;;;;10.25;7.22;;;;;;;19.48;63.79;100153.34;4983856;28;107337;-69
2021/06/27 22:59:26;;;;;;;8.07;6.88;;;;;;;19.55;63.42;100167.56;4984085;28;105854;-65
2021/06/27 23:01:55;;;;;;;9.75;7.38;;;;;;;19.56;63.31;100158.41;4984846;28;106210;-66
2021/06/27 23:04:23;;;;;;;9.60;7.43;;;;;;;19.44;62.97;100161.06;4984446;28;105998;-70
2021/06/27 23:06:48;;;;;;;9.82;7.95;;;;;;;19.30;63.11;100170.41;4984209;28;106371;-69
2021/06/27 23:09:13;;;;;;;13.82;8.63;;;;;;;19.13;63.33;100151.31;4976379;28;106643;-70
2021/06/27 23:11:39;;;;;;;17.95;9.02;;;;;;;18.99;63.37;100168.75;4969879;28;106325;-69
2021/06/27 23:14:04;;;;;;;16.02;9.20;;;;;;;18.89;63.80;100172.78;4971353;28;105994;-70
2021/06/27 23:16:31;;;;;;;16.17;9.07;;;;;;;18.76;63.87;100170.22;4970646;28;108027;-71
2021/06/27 23:18:56;;;;;;;12.55;8.30;;;;;;;18.65;64.31;100170.97;4971763;28;106062;-72
2021/06/27 23:21:22;;;;;;;14.35;10.07;;;;;;;18.55;64.18;100175.00;4971527;28;105907;-73
2021/06/27 23:23:47;;;;;;;12.10;9.10;;;;;;;18.45;64.69;100174.66;4971518;28;107276;-72
2021/06/27 23:26:12;;;;;;;11.82;9.10;;;;;;;18.37;65.16;100167.72;4978288;28;105957;-68
2021/06/27 23:28:38;;;;;;;12.50;7.95;;;;;;;18.33;65.46;100176.44;4980285;28;105996;-68
2021/06/27 23:31:03;;;;;;;12.27;9.30;;;;;;;18.27;65.55;100170.91;4985506;28;106174;-71
2021/06/27 23:33:28;;;;;;;11.52;8.80;;;;;;;18.22;65.81;100167.22;4972618;28;106006;-63
2021/06/27 23:35:54;;;;;;;11.40;9.00;;;;;;;18.16;65.94;100162.72;4971098;28;106300;-63
2021/06/27 23:38:19;;;;;;;12.93;8.05;;;;;;;18.11;66.32;100163.38;4971641;28;106183;-62
2021/06/27 23:40:45;;;;;;;11.95;8.73;;;;;;;18.06;66.38;100163.22;4971357;28;106200;-62
2021/06/27 23:43:10;;;;;;;12.27;8.98;;;;;;;18.00;66.62;100161.41;4970810;28;105980;-62
2021/06/27 23:45:35;;;;;;;10.63;8.38;;;;;;;17.94;66.81;100163.09;4970906;28;106015;-60
2021/06/27 23:48:01;;;;;;;11.40;8.75;;;;;;;17.88;66.85;100164.78;4970228;28;105952;-60
2021/06/27 23:50:26;;;;;;;13.43;9.00;;;;;;;17.82;67.04;100160.25;4970290;28;106280;-64
2021/06/27 23:52:52;;;;;;;12.65;9.63;;;;;;;17.75;67.23;100156.78;4969513;28;105756;-64
2021/06/27 23:55:18;;;;;;;12.38;9.75;;;;;;;17.71;67.69;100160.97;4970281;28;105876;-63
2021/06/27 23:57:43;;;;;;;11.50;9.73;;;;;;;17.66;67.58;100155.41;4970188;28;105954;-63
